Time;durP1;ratioP1;P1;durP2;ratioP2;P2;SDS_P1;SDS_P2;PMS_P1;PMS_P2;Temp;Humidity;BMP_temperature;BMP_pressure;BME280_temperature;BME280_humidity;BME280_pressure;Samples;Min_cycle;Max_cycle;Signal;HPM_P1;HPM_P2
2021/01/29 00:00:39;;;;;;;23.33;20.13;;;;;;;;;;5027673;28;20025;-55
2021/01/29 00:03:09;;;;;;;25.87;20.50;;;;;;;;;;5040958;28;20060;-55
2021/01/29 00:05:38;;;;;;;29.53;21.73;;;;;;;;;;5024553;28;20048;-54
2021/01/29 00:08:04;;;;;;;31.50;20.83;;;;;;;;;;5034408;28;20032;-54
2021/01/29 00:10:30;;;;;;;27.73;21.80;;;;;;;;;;5040369;28;20048;-55
2021/01/29 00:12:56;;;;;;;30.47;21.63;;;;;;;;;;5042310;28;20478;-51
2021/01/29 00:15:23;;;;;;;33.10;21.90;;;;;;;;;;5038888;28;20184;-55
2021/01/29 00:18:16;;;;;;;33.00;23.40;;;;;;;;;;5025964;28;20554;-56
2021/01/29 00:20:42;;;;;;;30.57;22.93;;;;;;;;;;4982081;28;20183;-54
2021/01/29 00:23:09;;;;;;;32.40;24.57;;;;;;;;;;5038551;28;20029;-51
2021/01/29 00:25:36;;;;;;;32.83;22.83;;;;;;;;;;5037582;28;20113;-54
2021/01/29 00:28:03;;;;;;;30.30;23.17;;;;;;;;;;5033433;28;20064;-51
2021/01/29 00:30:29;;;;;;;30.40;21.70;;;;;;;;;;5038503;28;20063;-50
2021/01/29 00:32:56;;;;;;;31.10;25.47;;;;;;;;;;5045591;28;20102;-54
2021/01/29 00:35:22;;;;;;;30.80;23.67;;;;;;;;;;5047000;28;20121;-52
2021/01/29 00:37:49;;;;;;;29.33;22.00;;;;;;;;;;5040747;28;20497;-51
2021/01/29 00:40:15;;;;;;;30.17;23.03;;;;;;;;;;5037524;28;20045;-51
2021/01/29 00:42:41;;;;;;;29.50;22.60;;;;;;;;;;5025616;28;20037;-55
2021/01/29 00:45:08;;;;;;;28.97;21.37;;;;;;;;;;5042748;28;20040;-54
2021/01/29 00:47:35;;;;;;;30.50;22.73;;;;;;;;;;5038545;28;20036;-55
2021/01/29 00:50:11;;;;;;;30.00;21.73;;;;;;;;;;5046106;28;20035;-54
2021/01/29 00:52:37;;;;;;;27.53;21.10;;;;;;;;;;4990298;28;20054;-57
2021/01/29 00:55:04;;;;;;;29.00;22.90;;;;;;;;;;5031785;28;20450;-54
2021/01/29 00:57:30;;;;;;;31.97;24.67;;;;;;;;;;5028995;28;20049;-53
2021/01/29 00:59:56;;;;;;;30.97;23.57;;;;;;;;;;5031096;28;20044;-52
2021/01/29 01:02:22;;;;;;;30.77;22.97;;;;;;;;;;5039183;28;20433;-52
2021/01/29 01:04:48;;;;;;;29.50;22.93;;;;;;;;;;5039410;28;20036;-52
2021/01/29 01:07:14;;;;;;;36.37;24.87;;;;;;;;;;5042862;28;20136;-54
2021/01/29 01:09:40;;;;;;;33.77;24.43;;;;;;;;;;5031040;28;20092;-54
2021/01/29 01:12:07;;;;;;;31.70;24.90;;;;;;;;;;5036865;28;20037;-53
2021/01/29 01:14:33;;;;;;;29.50;23.70;;;;;;;;;;5038917;28;20033;-55
2021/01/29 01:16:59;;;;;;;36.23;25.63;;;;;;;;;;5025023;28;20484;-51
2021/01/29 01:19:25;;;;;;;34.33;24.00;;;;;;;;;;5026558;28;20089;-53
2021/01/29 01:21:51;;;;;;;34.10;24.83;;;;;;;;;;5027954;28;20064;-55
2021/01/29 01:24:17;;;;;;;32.17;25.57;;;;;;;;;;5037125;28;20418;-51
2021/01/29 01:26:43;;;;;;;33.97;24.70;;;;;;;;;;5053254;28;20036;-52
2021/01/29 01:29:09;;;;;;;31.10;23.80;;;;;;;;;;5033204;28;20030;-50
2021/01/29 01:31:35;;;;;;;34.97;26.93;;;;;;;;;;5031684;28;20483;-56
2021/01/29 01:34:01;;;;;;;34.43;25.80;;;;;;;;;;5035760;28;20091;-56
2021/01/29 01:36:27;;;;;;;35.10;26.77;;;;;;;;;;5044636;28;20037;-55
2021/01/29 01:38:53;;;;;;;34.00;25.97;;;;;;;;;;5044022;28;20437;-54
2021/01/29 01:41:20;;;;;;;38.37;27.73;;;;;;;;;;5037546;28;20032;-55
2021/01/29 01:43:46;;;;;;;35.90;29.07;;;;;;;;;;5024771;28;20038;-54
2021/01/29 01:46:15;;;;;;;35.10;27.23;;;;;;;;;;5030755;28;20037;-53
2021/01/29 01:48:51;;;;;;;39.97;30.23;;;;;;;;;;5003826;28;20041;-54
2021/01/29 01:51:24;;;;;;;34.83;26.90;;;;;;;;;;5035514;28;20065;-52
2021/01/29 01:53:52;;;;;;;35.23;28.03;;;;;;;;;;5030535;28;20045;-54
2021/01/29 01:56:23;;;;;;;33.13;25.90;;;;;;;;;;5024415;28;20390;-53
2021/01/29 01:58:54;;;;;;;36.40;26.70;;;;;;;;;;5037681;28;20091;-52
2021/01/29 02:01:22;;;;;;;35.67;25.27;;;;;;;;;;5041195;28;20035;-51
2021/01/29 02:03:48;;;;;;;36.87;26.53;;;;;;;;;;5033142;28;20083;-53
2021/01/29 02:06:15;;;;;;;30.30;24.00;;;;;;;;;;5025682;28;20029;-52
2021/01/29 02:08:42;;;;;;;34.23;24.97;;;;;;;;;;5020306;28;20025;-54
2021/01/29 02:11:09;;;;;;;30.73;22.00;;;;;;;;;;5039755;28;20037;-56
2021/01/29 02:13:35;;;;;;;28.37;23.23;;;;;;;;;;5038746;28;20390;-54
2021/01/29 02:16:07;;;;;;;33.30;21.67;;;;;;;;;;5022725;28;20030;-51
2021/01/29 02:19:02;;;;;;;26.13;21.87;;;;;;;;;;5022453;28;20029;-56
2021/01/29 02:21:28;;;;;;;25.88;21.55;;;;;;;;;;5025139;28;20065;-54
2021/01/29 02:24:13;;;;;;;30.40;22.70;;;;;;;;;;5034599;28;20072;-52
2021/01/29 02:26:39;;;;;;;28.63;21.90;;;;;;;;;;5013615;28;20030;-54
2021/01/29 02:29:07;;;;;;;29.97;23.47;;;;;;;;;;5036914;28;20124;-54
2021/01/29 02:31:33;;;;;;;32.83;24.57;;;;;;;;;;5034330;28;20084;-55
2021/01/29 02:34:18;;;;;;;33.07;25.23;;;;;;;;;;5042251;28;20045;-53
2021/01/29 02:37:04;;;;;;;35.80;25.73;;;;;;;;;;5001805;28;20037;-54
2021/01/29 02:39:37;;;;;;;32.07;24.30;;;;;;;;;;5038018;28;20128;-50
2021/01/29 02:42:22;;;;;;;31.17;25.10;;;;;;;;;;5023230;28;20042;-54
2021/01/29 02:44:57;;;;;;;29.60;23.77;;;;;;;;;;5021091;28;20040;-54
2021/01/29 02:47:30;;;;;;;33.60;24.10;;;;;;;;;;5022176;28;21039;-54
2021/01/29 02:49:59;;;;;;;29.87;23.80;;;;;;;;;;5026471;28;20580;-55
2021/01/29 02:52:30;;;;;;;31.17;23.80;;;;;;;;;;5031275;28;20037;-55
2021/01/29 02:55:09;;;;;;;28.73;22.37;;;;;;;;;;5042504;28;20087;-52
2021/01/29 02:57:47;;;;;;;32.47;24.37;;;;;;;;;;5038532;28;20112;-52
2021/01/29 03:00:25;;;;;;;30.87;23.73;;;;;;;;;;5046726;28;20068;-55
2021/01/29 03:02:55;;;;;;;29.67;22.90;;;;;;;;;;5042088;28;20094;-54
2021/01/29 03:05:24;;;;;;;33.50;23.07;;;;;;;;;;5046024;28;20049;-55
2021/01/29 03:07:56;;;;;;;31.93;21.97;;;;;;;;;;5043781;28;20053;-55
2021/01/29 03:10:22;;;;;;;31.73;22.50;;;;;;;;;;5048452;28;20113;-51
2021/01/29 03:12:52;;;;;;;27.20;21.67;;;;;;;;;;5019266;28;20121;-53
2021/01/29 03:15:21;;;;;;;29.17;23.07;;;;;;;;;;5042321;28;20547;-54
2021/01/29 03:18:17;;;;;;;27.50;22.57;;;;;;;;;;5030766;28;20045;-54
2021/01/29 03:20:54;;;;;;;31.33;21.95;;;;;;;;;;4998681;28;20037;-52
2021/01/29 03:23:27;;;;;;;29.33;21.70;;;;;;;;;;5039585;28;20080;-50
2021/01/29 03:26:02;;;;;;;26.00;21.37;;;;;;;;;;5028778;28;20124;-52
2021/01/29 03:28:30;;;;;;;27.73;23.02;;;;;;;;;;5039785;28;20519;-54
2021/01/29 03:30:57;;;;;;;26.47;21.53;;;;;;;;;;5038778;28;20069;-56
2021/01/29 03:33:26;;;;;;;29.37;22.47;;;;;;;;;;5035838;28;20051;-53
2021/01/29 03:36:01;;;;;;;25.60;22.03;;;;;;;;;;5045727;28;20454;-55
2021/01/29 03:38:59;;;;;;;28.07;20.10;;;;;;;;;;5041830;28;20083;-53
2021/01/29 03:41:45;;;;;;;28.63;21.33;;;;;;;;;;4989678;28;20342;-54
2021/01/29 03:44:15;;;;;;;28.13;20.83;;;;;;;;;;5023893;28;20048;-53
2021/01/29 03:47:13;;;;;;;27.83;22.27;;;;;;;;;;5045688;28;20036;-52
2021/01/29 03:49:58;;;;;;;30.00;21.57;;;;;;;;;;4974891;28;20040;-55
2021/01/29 03:52:24;;;;;;;;;;;;;;;;;;5042658;28;20037;-51
2021/01/29 03:54:56;;;;;;;28.27;22.07;;;;;;;;;;5034854;28;19932;-56
2021/01/29 03:57:28;;;;;;;28.10;22.20;;;;;;;;;;5044247;28;20402;-55
2021/01/29 04:00:06;;;;;;;25.90;21.83;;;;;;;;;;5040550;28;20041;-51
2021/01/29 04:02:58;;;;;;;25.63;21.40;;;;;;;;;;5041250;28;20509;-54
2021/01/29 04:05:27;;;;;;;29.13;21.73;;;;;;;;;;5013261;28;20072;-51
2021/01/29 04:08:06;;;;;;;24.17;21.37;;;;;;;;;;5046777;28;20162;-52
2021/01/29 04:10:33;;;;;;;25.93;20.53;;;;;;;;;;5056429;28;20125;-53
2021/01/29 04:13:03;;;;;;;29.13;21.70;;;;;;;;;;5041728;28;20501;-53
2021/01/29 04:15:42;;;;;;;22.47;20.07;;;;;;;;;;5042415;28;20040;-50
2021/01/29 04:18:12;;;;;;;24.93;20.77;;;;;;;;;;5042019;28;21572;-53
2021/01/29 04:20:44;;;;;;;26.67;22.27;;;;;;;;;;5028500;28;20522;-54
2021/01/29 04:23:13;;;;;;;27.83;21.27;;;;;;;;;;5035207;28;20060;-51
2021/01/29 04:25:42;;;;;;;25.07;20.73;;;;;;;;;;5041348;28;20037;-55
2021/01/29 04:28:20;;;;;;;29.37;21.10;;;;;;;;;;5039700;28;20367;-55
2021/01/29 04:30:49;;;;;;;34.27;26.23;;;;;;;;;;5034263;28;20033;-52
2021/01/29 04:33:19;;;;;;;24.63;20.53;;;;;;;;;;5034339;28;20104;-51
2021/01/29 04:35:45;;;;;;;24.27;19.77;;;;;;;;;;5044419;28;20091;-50
2021/01/29 04:38:29;;;;;;;26.53;20.57;;;;;;;;;;5043890;28;20052;-50
2021/01/29 04:40:59;;;;;;;30.35;21.45;;;;;;;;;;5027561;28;20030;-52
2021/01/29 04:43:31;;;;;;;23.00;20.33;;;;;;;;;;5042821;28;20045;-51
2021/01/29 04:45:59;;;;;;;25.97;20.47;;;;;;;;;;5031324;28;20052;-50
2021/01/29 04:48:35;;;;;;;25.93;21.27;;;;;;;;;;5040181;28;20045;-52
2021/01/29 04:51:01;;;;;;;26.33;20.67;;;;;;;;;;5028133;28;20033;-51
2021/01/29 04:53:30;;;;;;;25.13;20.40;;;;;;;;;;5040541;28;20044;-53
2021/01/29 04:56:02;;;;;;;23.27;19.40;;;;;;;;;;5039199;28;20045;-51
2021/01/29 04:58:34;;;;;;;26.20;20.90;;;;;;;;;;5043574;28;20521;-51
2021/01/29 05:01:23;;;;;;;25.40;19.20;;;;;;;;;;5041304;28;20042;-51
2021/01/29 05:04:12;;;;;;;23.53;20.67;;;;;;;;;;5020201;28;20140;-53
2021/01/29 05:06:48;;;;;;;27.10;21.83;;;;;;;;;;5042025;28;20036;-53
2021/01/29 05:09:17;;;;;;;29.87;21.43;;;;;;;;;;5042516;28;20037;-51
2021/01/29 05:11:49;;;;;;;29.20;22.60;;;;;;;;;;5035808;28;20056;-51
2021/01/29 05:14:18;;;;;;;28.87;22.53;;;;;;;;;;5029623;28;20160;-52
2021/01/29 05:17:02;;;;;;;27.43;22.83;;;;;;;;;;5039903;28;20033;-51
2021/01/29 05:19:48;;;;;;;30.33;23.20;;;;;;;;;;5042794;28;20542;-52
2021/01/29 05:22:37;;;;;;;31.03;23.43;;;;;;;;;;5012272;28;20033;-54
2021/01/29 05:25:22;;;;;;;30.60;23.77;;;;;;;;;;5044174;28;20635;-54
2021/01/29 05:27:57;;;;;;;28.40;22.85;;;;;;;;;;4990659;28;20061;-53
2021/01/29 05:30:38;;;;;;;31.47;23.23;;;;;;;;;;5044156;28;20041;-55
2021/01/29 05:33:04;;;;;;;27.17;21.97;;;;;;;;;;5039499;28;20106;-56
2021/01/29 05:35:38;;;;;;;31.40;24.93;;;;;;;;;;5041369;28;20510;-55
2021/01/29 05:38:12;;;;;;;29.13;23.20;;;;;;;;;;5032238;28;20037;-55
2021/01/29 05:40:47;;;;;;;32.38;24.02;;;;;;;;;;5032767;28;20037;-56
2021/01/29 05:43:13;;;;;;;31.40;24.88;;;;;;;;;;5037012;28;20082;-55
2021/01/29 05:45:54;;;;;;;34.57;25.07;;;;;;;;;;5034271;28;20445;-53
2021/01/29 05:48:41;;;;;;;30.47;23.60;;;;;;;;;;5028641;28;20064;-55
2021/01/29 05:51:11;;;;;;;36.07;25.93;;;;;;;;;;5036520;28;20076;-51
2021/01/29 05:53:55;;;;;;;31.63;25.30;;;;;;;;;;5028207;28;20129;-54
2021/01/29 05:56:34;;;;;;;28.77;20.65;;;;;;;;;;5041501;28;20044;-54
2021/01/29 05:59:19;;;;;;;31.33;24.40;;;;;;;;;;5036911;28;20040;-52
2021/01/29 06:01:45;;;;;;;29.05;23.85;;;;;;;;;;5002255;28;20037;-56
2021/01/29 06:04:30;;;;;;;30.20;24.60;;;;;;;;;;5037620;28;20561;-55
2021/01/29 06:07:14;;;;;;;30.02;25.27;;;;;;;;;;5039422;28;20048;-53
2021/01/29 06:09:43;;;;;;;31.10;25.65;;;;;;;;;;4999046;28;20045;-52
2021/01/29 06:12:15;;;;;;;32.20;25.20;;;;;;;;;;5028432;28;20443;-52
2021/01/29 06:14:51;;;;;;;30.20;23.80;;;;;;;;;;5034243;28;20041;-53
2021/01/29 06:17:36;;;;;;;33.70;25.53;;;;;;;;;;5036562;28;20044;-51
2021/01/29 06:20:05;;;;;;;29.85;25.17;;;;;;;;;;5032134;28;20025;-51
2021/01/29 06:22:34;;;;;;;32.83;24.73;;;;;;;;;;5041679;28;20045;-54
2021/01/29 06:25:16;;;;;;;29.33;25.33;;;;;;;;;;5037298;28;20053;-54
2021/01/29 06:27:50;;;;;;;29.60;24.60;;;;;;;;;;4987997;28;20041;-55
2021/01/29 06:30:40;;;;;;;34.70;24.53;;;;;;;;;;5028818;28;20128;-54
2021/01/29 06:33:18;;;;;;;36.13;25.53;;;;;;;;;;5041097;28;20599;-51
2021/01/29 06:35:44;;;;;;;34.60;24.97;;;;;;;;;;5033857;28;20059;-52
2021/01/29 06:38:19;;;;;;;31.20;25.20;;;;;;;;;;5054955;28;20159;-53
2021/01/29 06:41:03;;;;;;;28.43;24.67;;;;;;;;;;5043245;28;20049;-53
2021/01/29 06:43:41;;;;;;;36.73;26.77;;;;;;;;;;5044912;28;20037;-51
2021/01/29 06:46:26;;;;;;;28.83;25.50;;;;;;;;;;5036539;28;20044;-53
2021/01/29 06:49:20;;;;;;;30.13;25.88;;;;;;;;;;5039709;28;20548;-52
2021/01/29 06:52:04;;;;;;;30.70;24.37;;;;;;;;;;4986283;28;20041;-52
2021/01/29 06:54:30;;;;;;;31.27;24.30;;;;;;;;;;5021887;28;20402;-55
2021/01/29 06:57:05;;;;;;;33.10;24.97;;;;;;;;;;5024238;28;20033;-54
2021/01/29 07:00:04;;;;;;;28.73;24.37;;;;;;;;;;5011562;28;20037;-53
2021/01/29 07:02:48;;;;;;;30.17;24.17;;;;;;;;;;4977340;28;20064;-54
2021/01/29 07:05:31;;;;;;;33.40;25.23;;;;;;;;;;5002668;28;20376;-54
2021/01/29 07:08:03;;;;;;;29.87;26.63;;;;;;;;;;5037708;28;20033;-52
2021/01/29 07:10:29;;;;;;;30.43;26.47;;;;;;;;;;5047780;28;20116;-51
2021/01/29 07:13:02;;;;;;;32.00;26.03;;;;;;;;;;5041986;28;20160;-53
2021/01/29 07:15:31;;;;;;;33.30;25.90;;;;;;;;;;5046951;28;20128;-52
2021/01/29 07:18:30;;;;;;;32.60;24.03;;;;;;;;;;5031362;28;20030;-56
2021/01/29 07:21:14;;;;;;;31.40;24.73;;;;;;;;;;4998710;28;20792;-56
2021/01/29 07:23:40;;;;;;;30.90;24.33;;;;;;;;;;5042714;28;20041;-55
2021/01/29 07:26:20;;;;;;;33.20;25.13;;;;;;;;;;5047897;28;20065;-54
2021/01/29 07:29:06;;;;;;;36.40;26.27;;;;;;;;;;5039151;28;20041;-52
2021/01/29 07:31:43;;;;;;;32.33;25.40;;;;;;;;;;5030702;28;20048;-55
2021/01/29 07:34:16;;;;;;;32.47;25.83;;;;;;;;;;5023980;28;20073;-53
2021/01/29 07:36:42;;;;;;;30.03;25.27;;;;;;;;;;5027554;28;20363;-52
2021/01/29 07:39:27;;;;;;;32.83;27.60;;;;;;;;;;5043571;28;20025;-54
2021/01/29 07:42:23;;;;;;;37.90;26.95;;;;;;;;;;5043720;28;20127;-55
2021/01/29 07:44:49;;;;;;;32.80;25.25;;;;;;;;;;5019207;28;20050;-56
2021/01/29 07:47:22;;;;;;;36.63;26.53;;;;;;;;;;5029255;28;20048;-56
2021/01/29 07:50:03;;;;;;;32.90;26.90;;;;;;;;;;5034303;28;20078;-55
2021/01/29 07:53:08;;;;;;;30.00;25.93;;;;;;;;;;5045441;28;20540;-55
2021/01/29 07:55:57;;;;;;;35.87;26.87;;;;;;;;;;4957969;28;20576;-55
2021/01/29 07:58:48;;;;;;;31.33;27.27;;;;;;;;;;4956035;28;20072;-56
2021/01/29 08:01:32;;;;;;;32.80;27.13;;;;;;;;;;4995505;28;20141;-53
2021/01/29 08:04:05;;;;;;;31.00;25.80;;;;;;;;;;5038540;28;20040;-52
2021/01/29 08:06:49;;;;;;;31.93;25.97;;;;;;;;;;5046664;28;20048;-53
2021/01/29 08:09:32;;;;;;;29.98;26.77;;;;;;;;;;5015423;28;20114;-52
2021/01/29 08:12:00;;;;;;;31.30;26.00;;;;;;;;;;5044883;28;20051;-52
2021/01/29 08:14:44;;;;;;;32.00;26.10;;;;;;;;;;5040419;28;20157;-54
2021/01/29 08:17:22;;;;;;;33.42;27.25;;;;;;;;;;5032258;28;20112;-54
2021/01/29 08:19:48;;;;;;;32.87;27.80;;;;;;;;;;5026681;28;20033;-54
2021/01/29 08:22:25;;;;;;;32.77;27.13;;;;;;;;;;5030980;28;20131;-53
2021/01/29 08:25:10;;;;;;;30.17;26.90;;;;;;;;;;5025855;28;20053;-55
2021/01/29 08:28:00;;;;;;;31.88;27.13;;;;;;;;;;5030301;28;20065;-55
2021/01/29 08:30:38;;;;;;;36.83;28.47;;;;;;;;;;5022690;28;20049;-55
2021/01/29 08:33:12;;;;;;;34.27;28.40;;;;;;;;;;5015666;28;20071;-56
2021/01/29 08:35:38;;;;;;;;;;;;;;;;;;5014985;28;20061;-53
2021/01/29 08:38:25;;;;;;;35.23;28.23;;;;;;;;;;5017697;28;19921;-54
2021/01/29 08:41:06;;;;;;;31.30;27.57;;;;;;;;;;5009017;28;20033;-50
2021/01/29 08:43:32;;;;;;;33.33;29.23;;;;;;;;;;5044949;28;20045;-52
2021/01/29 08:46:21;;;;;;;34.33;29.73;;;;;;;;;;5037404;28;20449;-52
2021/01/29 08:48:47;;;;;;;39.13;30.30;;;;;;;;;;5008082;28;20117;-53
2021/01/29 08:51:36;;;;;;;33.80;28.17;;;;;;;;;;5044319;28;20128;-51
2021/01/29 08:54:17;;;;;;;33.80;28.70;;;;;;;;;;5038096;28;20040;-53
2021/01/29 08:57:00;;;;;;;37.53;29.63;;;;;;;;;;4986731;28;20053;-52
2021/01/29 08:59:34;;;;;;;36.07;28.67;;;;;;;;;;5033210;28;20044;-52
2021/01/29 09:02:12;;;;;;;35.25;28.42;;;;;;;;;;5036721;28;20041;-51
2021/01/29 09:04:50;;;;;;;31.40;27.63;;;;;;;;;;5043837;28;20791;-53
2021/01/29 09:07:20;;;;;;;34.70;27.20;;;;;;;;;;5037084;28;20037;-54
2021/01/29 09:09:47;;;;;;;32.53;27.63;;;;;;;;;;5035166;28;20129;-56
2021/01/29 09:12:15;;;;;;;35.53;28.27;;;;;;;;;;5014410;28;20458;-55
2021/01/29 09:14:43;;;;;;;32.63;28.70;;;;;;;;;;5036150;28;20130;-56
2021/01/29 09:17:12;;;;;;;32.87;27.57;;;;;;;;;;5027176;28;20405;-55
2021/01/29 09:19:41;;;;;;;35.73;27.87;;;;;;;;;;5029099;28;20045;-55
2021/01/29 09:22:22;;;;;;;31.13;27.77;;;;;;;;;;5024412;28;20049;-54
2021/01/29 09:25:05;;;;;;;32.67;27.77;;;;;;;;;;5020500;28;20058;-56
2021/01/29 09:27:51;;;;;;;36.37;27.13;;;;;;;;;;5017985;28;20044;-56
2021/01/29 09:30:27;;;;;;;32.78;27.48;;;;;;;;;;5005495;28;20064;-57
2021/01/29 09:32:55;;;;;;;34.67;28.30;;;;;;;;;;5028656;28;20044;-56
2021/01/29 09:35:32;;;;;;;36.30;28.80;;;;;;;;;;5031981;28;20087;-54
2021/01/29 09:38:00;;;;;;;31.47;27.20;;;;;;;;;;5029337;28;20356;-54
2021/01/29 09:40:33;;;;;;;38.70;28.97;;;;;;;;;;5028740;28;20049;-54
2021/01/29 09:42:59;;;;;;;36.27;30.23;;;;;;;;;;5025979;28;20052;-51
2021/01/29 09:45:28;;;;;;;32.80;29.20;;;;;;;;;;5029724;28;20056;-51
2021/01/29 09:48:01;;;;;;;35.70;27.60;;;;;;;;;;5024722;28;20049;-53
2021/01/29 09:50:28;;;;;;;31.90;27.17;;;;;;;;;;5030534;28;20045;-50
2021/01/29 09:52:54;;;;;;;32.67;28.73;;;;;;;;;;5026456;28;20064;-53
2021/01/29 09:55:24;;;;;;;32.13;28.57;;;;;;;;;;5027777;28;20044;-50
2021/01/29 09:57:58;;;;;;;35.03;28.37;;;;;;;;;;5027545;28;20078;-52
2021/01/29 10:00:29;;;;;;;34.63;28.45;;;;;;;;;;5028666;28;20098;-54
2021/01/29 10:02:59;;;;;;;36.57;30.13;;;;;;;;;;5026612;28;20033;-53
2021/01/29 10:05:25;;;;;;;38.83;28.70;;;;;;;;;;5031601;28;20118;-50
2021/01/29 10:07:57;;;;;;;34.07;29.17;;;;;;;;;;5027913;28;20723;-54
2021/01/29 10:10:37;;;;;;;38.87;28.83;;;;;;;;;;5032806;28;20041;-53
2021/01/29 10:13:10;;;;;;;36.97;29.40;;;;;;;;;;5029886;28;20034;-52
2021/01/29 10:15:38;;;;;;;33.03;27.33;;;;;;;;;;5020811;28;20045;-54
2021/01/29 10:18:13;;;;;;;36.23;31.20;;;;;;;;;;5050142;28;20045;-51
2021/01/29 10:20:39;;;;;;;36.83;29.17;;;;;;;;;;5034138;28;20034;-52
2021/01/29 10:23:10;;;;;;;35.47;28.67;;;;;;;;;;5035839;28;20040;-53
2021/01/29 10:25:40;;;;;;;37.17;30.93;;;;;;;;;;5036926;28;20051;-53
2021/01/29 10:28:32;;;;;;;36.40;27.47;;;;;;;;;;5038216;28;20044;-53
2021/01/29 10:30:58;;;;;;;39.13;30.00;;;;;;;;;;4993488;28;20052;-51
2021/01/29 10:33:27;;;;;;;32.03;28.47;;;;;;;;;;5036307;28;20041;-54
2021/01/29 10:36:02;;;;;;;34.10;27.77;;;;;;;;;;5036117;28;20723;-51
2021/01/29 10:38:28;;;;;;;;;;;;;;;;;;5038960;28;20041;-53
2021/01/29 10:41:17;;;;;;;36.20;28.93;;;;;;;;;;5030473;28;19923;-50
2021/01/29 10:43:46;;;;;;;35.67;29.37;;;;;;;;;;5002503;28;20124;-50
2021/01/29 10:46:17;;;;;;;34.63;28.90;;;;;;;;;;5028597;28;20045;-49
2021/01/29 10:48:49;;;;;;;33.60;28.20;;;;;;;;;;5019754;28;20562;-49
2021/01/29 10:51:15;;;;;;;34.80;27.87;;;;;;;;;;5022891;28;20076;-50
2021/01/29 10:53:41;;;;;;;32.13;28.70;;;;;;;;;;5040788;28;20064;-53
2021/01/29 10:56:13;;;;;;;33.27;29.30;;;;;;;;;;5028921;28;20042;-58
2021/01/29 10:58:39;;;;;;;33.07;29.47;;;;;;;;;;5037849;28;20029;-50
2021/01/29 11:01:27;;;;;;;39.37;31.10;;;;;;;;;;5033726;28;20052;-49
2021/01/29 11:03:56;;;;;;;35.67;31.20;;;;;;;;;;5005366;28;20136;-49
2021/01/29 11:06:29;;;;;;;37.73;30.57;;;;;;;;;;5034280;28;20115;-52
2021/01/29 11:08:58;;;;;;;33.60;29.13;;;;;;;;;;5034501;28;20528;-54
2021/01/29 11:11:28;;;;;;;33.30;29.37;;;;;;;;;;5029779;28;20045;-54
2021/01/29 11:14:06;;;;;;;36.20;29.80;;;;;;;;;;5033545;28;20041;-54
2021/01/29 11:16:39;;;;;;;37.80;30.50;;;;;;;;;;5030698;28;20477;-53
2021/01/29 11:19:09;;;;;;;38.47;32.00;;;;;;;;;;5036427;28;20406;-49
2021/01/29 11:21:38;;;;;;;34.47;30.00;;;;;;;;;;5036261;28;20041;-53
2021/01/29 11:24:16;;;;;;;35.47;29.93;;;;;;;;;;5039466;28;20049;-54
2021/01/29 11:26:46;;;;;;;36.67;29.93;;;;;;;;;;5033600;28;20067;-53
2021/01/29 11:29:15;;;;;;;36.97;30.00;;;;;;;;;;5040961;28;20064;-51
2021/01/29 11:31:45;;;;;;;32.87;29.37;;;;;;;;;;5032326;28;20075;-51
2021/01/29 11:34:30;;;;;;;33.90;30.27;;;;;;;;;;5033275;28;20048;-54
2021/01/29 11:36:59;;;;;;;33.47;29.85;;;;;;;;;;5035168;28;20036;-52
2021/01/29 11:39:28;;;;;;;35.67;31.43;;;;;;;;;;5033150;28;20391;-50
2021/01/29 11:42:02;;;;;;;37.17;31.17;;;;;;;;;;5030734;28;20048;-54
2021/01/29 11:44:54;;;;;;;34.97;31.17;;;;;;;;;;5031511;28;20130;-54
2021/01/29 11:47:27;;;;;;;38.60;30.83;;;;;;;;;;5002524;28;20524;-53
2021/01/29 11:50:13;;;;;;;35.90;30.40;;;;;;;;;;5030260;28;20049;-51
2021/01/29 11:52:39;;;;;;;;;;;;;;;;;;5028068;28;20033;-53
2021/01/29 11:55:15;;;;;;;41.37;32.27;;;;;;;;;;5031977;28;20887;-51
2021/01/29 11:58:01;;;;;;;38.80;32.07;;;;;;;;;;5026095;28;20069;-54
2021/01/29 12:00:36;;;;;;;40.83;35.07;;;;;;;;;;5030511;28;20421;-52
2021/01/29 12:03:21;;;;;;;37.13;31.63;;;;;;;;;;5027239;28;20597;-52
2021/01/29 12:05:53;;;;;;;38.17;33.60;;;;;;;;;;4987407;28;20094;-53
2021/01/29 12:08:28;;;;;;;38.33;32.90;;;;;;;;;;5008353;28;20065;-55
2021/01/29 12:10:54;;;;;;;;;;;;;;;;;;5042426;28;20490;-53
2021/01/29 12:13:24;;;;;;;36.17;32.07;;;;;;;;;;5020816;28;19917;-52
2021/01/29 12:15:55;;;;;;;39.43;33.10;;;;;;;;;;5031267;28;20057;-53
2021/01/29 12:18:22;;;;;;;40.03;33.13;;;;;;;;;;5026615;28;20073;-54
2021/01/29 12:20:48;;;;;;;40.87;32.23;;;;;;;;;;5028765;28;20045;-54
2021/01/29 12:23:19;;;;;;;35.93;32.07;;;;;;;;;;5015525;28;20045;-54
2021/01/29 12:25:48;;;;;;;42.97;35.90;;;;;;;;;;5029942;28;20110;-55
2021/01/29 12:28:33;;;;;;;37.33;33.23;;;;;;;;;;5026082;28;20043;-52
2021/01/29 12:31:20;;;;;;;39.38;32.42;;;;;;;;;;5030064;28;20081;-51
2021/01/29 12:33:52;;;;;;;38.90;33.23;;;;;;;;;;4991593;28;20041;-51
2021/01/29 12:36:20;;;;;;;38.13;32.43;;;;;;;;;;5030930;28;20759;-52
2021/01/29 12:39:08;;;;;;;38.00;33.80;;;;;;;;;;5026187;28;20057;-51
2021/01/29 12:41:34;;;;;;;40.70;34.17;;;;;;;;;;5030647;28;20037;-51
2021/01/29 12:44:19;;;;;;;42.30;35.37;;;;;;;;;;5026262;28;20064;-55
2021/01/29 12:46:51;;;;;;;41.25;33.65;;;;;;;;;;5008802;28;20457;-53
2021/01/29 12:49:20;;;;;;;37.70;33.40;;;;;;;;;;5025943;28;20490;-55
2021/01/29 12:51:49;;;;;;;43.33;37.03;;;;;;;;;;5031723;28;20775;-52
2021/01/29 12:54:27;;;;;;;41.47;36.17;;;;;;;;;;5028389;28;20153;-54
2021/01/29 12:57:03;;;;;;;39.27;35.00;;;;;;;;;;5027449;28;20053;-55
2021/01/29 12:59:35;;;;;;;42.60;35.47;;;;;;;;;;5026252;28;20968;-56
2021/01/29 13:02:07;;;;;;;40.23;35.50;;;;;;;;;;5023491;28;20042;-54
2021/01/29 13:04:45;;;;;;;40.33;35.50;;;;;;;;;;5029583;28;20479;-54
2021/01/29 13:07:19;;;;;;;41.90;35.87;;;;;;;;;;5032799;28;20112;-52
2021/01/29 13:09:56;;;;;;;46.43;36.90;;;;;;;;;;5028444;28;20092;-55
2021/01/29 13:12:31;;;;;;;44.40;34.00;;;;;;;;;;5025602;28;20036;-53
2021/01/29 13:15:00;;;;;;;74.23;50.40;;;;;;;;;;5031206;28;20056;-52
2021/01/29 13:17:26;;;;;;;53.97;39.07;;;;;;;;;;5034481;28;20038;-51
2021/01/29 13:20:22;;;;;;;43.57;33.60;;;;;;;;;;5013259;28;20034;-54
2021/01/29 13:22:52;;;;;;;45.67;32.63;;;;;;;;;;4978230;28;20072;-54
2021/01/29 13:25:18;;;;;;;42.57;31.27;;;;;;;;;;5013621;28;20052;-53
2021/01/29 13:27:49;;;;;;;45.23;33.40;;;;;;;;;;5029973;28;20041;-55
2021/01/29 13:30:33;;;;;;;48.40;33.50;;;;;;;;;;5035813;28;20061;-55
2021/01/29 13:33:01;;;;;;;43.47;32.57;;;;;;;;;;5033920;28;20047;-53
2021/01/29 13:35:36;;;;;;;44.57;32.67;;;;;;;;;;5032193;28;20060;-53
2021/01/29 13:38:11;;;;;;;44.30;32.80;;;;;;;;;;5029632;28;20128;-54
2021/01/29 13:40:37;;;;;;;48.97;32.10;;;;;;;;;;5030453;28;20112;-53
2021/01/29 13:43:22;;;;;;;44.77;32.23;;;;;;;;;;5029018;28;20530;-55
2021/01/29 13:45:54;;;;;;;47.28;33.83;;;;;;;;;;5007969;28;20059;-53
2021/01/29 13:48:22;;;;;;;42.47;33.17;;;;;;;;;;5030791;28;20037;-54
2021/01/29 13:50:52;;;;;;;45.03;32.30;;;;;;;;;;5031387;28;20045;-53
2021/01/29 13:53:28;;;;;;;43.50;32.83;;;;;;;;;;5026196;28;20098;-53
2021/01/29 13:56:02;;;;;;;45.40;33.83;;;;;;;;;;5029990;28;20423;-54
2021/01/29 13:58:49;;;;;;;44.60;32.80;;;;;;;;;;5028725;28;20060;-51
2021/01/29 14:01:20;;;;;;;51.80;34.00;;;;;;;;;;5007661;28;20042;-54
2021/01/29 14:03:53;;;;;;;48.70;34.97;;;;;;;;;;5019419;28;20112;-53
2021/01/29 14:06:19;;;;;;;43.10;33.70;;;;;;;;;;5032392;28;20030;-53
2021/01/29 14:08:46;;;;;;;47.40;37.07;;;;;;;;;;5023968;28;20173;-54
2021/01/29 14:11:31;;;;;;;40.03;33.00;;;;;;;;;;5032185;28;20048;-51
2021/01/29 14:14:16;;;;;;;45.63;32.63;;;;;;;;;;5028540;28;20040;-54
2021/01/29 14:17:00;;;;;;;48.17;33.70;;;;;;;;;;5017224;28;20495;-53
2021/01/29 14:19:42;;;;;;;46.72;34.45;;;;;;;;;;5017007;28;20126;-54
2021/01/29 14:22:14;;;;;;;41.87;33.53;;;;;;;;;;5031925;28;20053;-50
2021/01/29 14:25:09;;;;;;;44.17;34.07;;;;;;;;;;5027009;28;20064;-53
2021/01/29 14:27:44;;;;;;;42.60;31.90;;;;;;;;;;4997772;28;20159;-52
2021/01/29 14:30:14;;;;;;;40.33;33.00;;;;;;;;;;5018701;28;20087;-55
2021/01/29 14:32:40;;;;;;;44.67;34.20;;;;;;;;;;5015005;28;20037;-59
2021/01/29 14:35:17;;;;;;;43.03;34.30;;;;;;;;;;5023236;28;20711;-54
2021/01/29 14:37:52;;;;;;;40.27;34.20;;;;;;;;;;5025915;28;20609;-53
2021/01/29 14:40:18;;;;;;;53.40;41.43;;;;;;;;;;5024842;28;20069;-54
2021/01/29 14:43:09;;;;;;;45.13;33.60;;;;;;;;;;5025367;28;20044;-52
2021/01/29 14:45:44;;;;;;;40.93;32.33;;;;;;;;;;5026410;28;20045;-52
2021/01/29 14:48:13;;;;;;;48.13;32.78;;;;;;;;;;5030205;28;20037;-51
2021/01/29 14:50:58;;;;;;;45.00;33.87;;;;;;;;;;5026877;28;20106;-52
2021/01/29 14:53:24;;;;;;;44.63;33.25;;;;;;;;;;4995500;28;20044;-52
2021/01/29 14:55:52;;;;;;;41.57;34.43;;;;;;;;;;5031009;28;20045;-55
2021/01/29 14:58:21;;;;;;;37.27;32.87;;;;;;;;;;5038860;28;20044;-55